createdAt,value
2023-03-28T00:01:02.721Z,102827.59
2023-03-28T00:03:29.843Z,102832.72
2023-03-28T00:06:02.958Z,102837.78
2023-03-28T00:08:30.742Z,102841.31
2023-03-28T00:11:09.081Z,102831.94
2023-03-28T00:13:37.979Z,102830.31
2023-03-28T00:16:09.975Z,102833.66
2023-03-28T00:18:39.431Z,102827.78
2023-03-28T00:21:20.247Z,102826.88
2023-03-28T00:23:53.915Z,102828.75
2023-03-28T00:26:24.632Z,102833.84
2023-03-28T00:28:51.926Z,102829.69
2023-03-28T00:31:18.944Z,102833.75
2023-03-28T00:33:47.476Z,102825.41
2023-03-28T00:36:18.318Z,102834.81
2023-03-28T00:38:49.796Z,102829.06
2023-03-28T00:41:21.708Z,102823.19
2023-03-28T00:43:51.283Z,102828.53
2023-03-28T00:46:29.805Z,102836.13
2023-03-28T00:49:06.222Z,102823.72
2023-03-28T00:51:40.636Z,102823.03
2023-03-28T00:54:17.291Z,102822.03
2023-03-28T00:56:49.074Z,102817.72
2023-03-28T00:59:20.211Z,102821.00
2023-03-28T01:01:49.015Z,102824.44
2023-03-28T01:04:22.195Z,102818.69
2023-03-28T01:06:55.004Z,102821.22
2023-03-28T01:09:24.129Z,102827.97
2023-03-28T01:11:58.306Z,102827.81
2023-03-28T01:14:29.372Z,102824.56
2023-03-28T01:17:02.484Z,102824.63
2023-03-28T01:19:59.066Z,102823.72
2023-03-28T01:22:31.124Z,102823.03
2023-03-28T01:25:42.155Z,102815.41
2023-03-28T01:28:42.082Z,102817.03
2023-03-28T01:31:53.817Z,102818.69
2023-03-28T01:34:20.348Z,102811.97
2023-03-28T01:37:05.556Z,102808.84
2023-03-28T01:39:57.727Z,102807.88
2023-03-28T01:42:43.178Z,102801.38
2023-03-28T01:45:15.495Z,102803.22
2023-03-28T01:47:52.377Z,102809.03
2023-03-28T01:50:34.546Z,102803.97
2023-03-28T01:53:20.276Z,102802.19
2023-03-28T01:55:54.051Z,102807.19
2023-03-28T01:58:35.344Z,102804.72
2023-03-28T02:01:23.259Z,102799.81
2023-03-28T02:03:57.636Z,102793.97
2023-03-28T02:06:27.330Z,102784.00
2023-03-28T02:08:58.065Z,102793.22
2023-03-28T02:11:29.742Z,102793.34
2023-03-28T02:14:15.949Z,102787.66
2023-03-28T02:16:50.257Z,102782.59
2023-03-28T02:19:20.146Z,102789.38
2023-03-28T02:21:58.941Z,102786.09
2023-03-28T02:24:31.597Z,102780.94
2023-03-28T02:26:58.087Z,102787.66
2023-03-28T02:29:30.777Z,102784.59
2023-03-28T02:31:57.330Z,102789.53
2023-03-28T02:34:23.918Z,102787.81
2023-03-28T02:36:59.388Z,102784.59
2023-03-28T02:39:39.077Z,102784.84
2023-03-28T02:42:11.420Z,102784.78
2023-03-28T02:44:44.267Z,102790.06
2023-03-28T02:47:30.988Z,102786.00
2023-03-28T02:50:34.851Z,102792.63
2023-03-28T02:53:12.433Z,102790.06
2023-03-28T02:55:57.178Z,102792.78
2023-03-28T02:58:34.262Z,102795.34
2023-03-28T03:01:14.561Z,102790.28
2023-03-28T03:03:43.728Z,102799.56
2023-03-28T03:06:10.612Z,102795.22
2023-03-28T03:08:39.487Z,102792.69
2023-03-28T03:11:06.594Z,102793.66
2023-03-28T03:13:33.140Z,102793.78
2023-03-28T03:16:02.216Z,102787.91
2023-03-28T03:18:28.937Z,102794.53
2023-03-28T03:20:58.047Z,102792.88
2023-03-28T03:23:24.671Z,102798.63
2023-03-28T03:25:51.855Z,102793.59
2023-03-28T03:28:18.755Z,102793.69
2023-03-28T03:30:47.909Z,102790.28
2023-03-28T03:33:19.455Z,102793.69
2023-03-28T03:35:46.042Z,102786.06
2023-03-28T03:38:17.393Z,102789.44
2023-03-28T03:40:43.849Z,102791.19
2023-03-28T03:43:15.815Z,102783.75
2023-03-28T03:45:46.290Z,102786.31
2023-03-28T03:48:17.388Z,102785.44
2023-03-28T03:50:43.961Z,102790.34
2023-03-28T03:53:12.970Z,102781.22
2023-03-28T03:55:41.976Z,102784.66
2023-03-28T03:58:09.819Z,102774.97
2023-03-28T04:00:38.026Z,102786.06
2023-03-28T04:03:06.030Z,102782.78
2023-03-28T04:05:32.753Z,102781.13
2023-03-28T04:08:00.588Z,102787.16
2023-03-28T04:10:29.453Z,102781.31
2023-03-28T04:13:01.005Z,102784.88
2023-03-28T04:15:27.596Z,102795.84
2023-03-28T04:17:57.095Z,102787.59
2023-03-28T04:20:29.706Z,102786.16
2023-03-28T04:22:56.693Z,102795.69
2023-03-28T04:25:24.810Z,102791.03
2023-03-28T04:27:54.576Z,102791.03
2023-03-28T04:30:25.855Z,102784.31
2023-03-28T04:32:54.928Z,102780.03
2023-03-28T04:35:24.365Z,102775.94
2023-03-28T04:37:50.865Z,102780.78
2023-03-28T04:40:21.780Z,102780.78
2023-03-28T04:42:48.291Z,102773.41
2023-03-28T04:45:17.678Z,102775.25
2023-03-28T04:47:44.760Z,102782.09
2023-03-28T04:50:14.272Z,102784.69
2023-03-28T04:52:41.009Z,102786.34
2023-03-28T04:55:10.455Z,102786.19
2023-03-28T04:57:39.758Z,102777.13
2023-03-28T05:00:13.003Z,102780.41
2023-03-28T05:02:41.802Z,102786.34
2023-03-28T05:05:10.963Z,102783.59
2023-03-28T05:07:40.073Z,102791.97
2023-03-28T05:10:11.668Z,102790.16
2023-03-28T05:12:44.317Z,102790.09
2023-03-28T05:15:11.048Z,102786.84
2023-03-28T05:17:47.794Z,102798.06
2023-03-28T05:20:16.559Z,102798.97
2023-03-28T05:22:43.233Z,102804.28
2023-03-28T05:25:12.142Z,102798.38
2023-03-28T05:27:39.089Z,102805.47
2023-03-28T05:30:07.757Z,102805.25
2023-03-28T05:32:37.862Z,102798.38
2023-03-28T05:35:10.005Z,102806.53
2023-03-28T05:37:38.280Z,102811.34
2023-03-28T05:40:11.103Z,102810.44
2023-03-28T05:42:38.980Z,102813.63
2023-03-28T05:45:12.436Z,102815.91
2023-03-28T05:47:39.433Z,102817.34
2023-03-28T05:50:08.858Z,102823.22
2023-03-28T05:52:35.586Z,102822.16
2023-03-28T05:55:02.086Z,102816.00
2023-03-28T05:57:30.932Z,102816.81
2023-03-28T05:59:57.398Z,102817.47
2023-03-28T06:02:26.292Z,102819.56
2023-03-28T06:04:53.985Z,102821.13
2023-03-28T06:07:23.219Z,102820.81
2023-03-28T06:09:58.436Z,102821.25
2023-03-28T06:12:25.301Z,102822.50
2023-03-28T06:14:56.132Z,102827.66
2023-03-28T06:17:25.212Z,102825.31
2023-03-28T06:19:54.036Z,102824.69
2023-03-28T06:22:23.692Z,102823.47
2023-03-28T06:24:51.482Z,102813.41
2023-03-28T06:27:18.023Z,102820.69
2023-03-28T06:29:44.689Z,102818.88
2023-03-28T06:32:12.706Z,102812.69
2023-03-28T06:34:39.266Z,102814.19
2023-03-28T06:37:05.867Z,102817.31
2023-03-28T06:39:32.341Z,102818.72
2023-03-28T06:41:59.912Z,102820.69
2023-03-28T06:44:26.525Z,102813.75
2023-03-28T06:46:55.832Z,102813.72
2023-03-28T06:49:25.326Z,102820.66
2023-03-28T06:51:53.178Z,102820.50
2023-03-28T06:54:19.817Z,102813.78
2023-03-28T06:56:47.549Z,102818.38
2023-03-28T06:59:14.062Z,102816.78
2023-03-28T07:01:40.612Z,102822.53
2023-03-28T07:04:09.312Z,102823.84
2023-03-28T07:06:38.984Z,102824.66
2023-03-28T07:09:06.691Z,102819.59
2023-03-28T07:11:35.985Z,102826.53
2023-03-28T07:14:02.506Z,102828.88
2023-03-28T07:16:31.576Z,102828.13
2023-03-28T07:19:00.332Z,102823.81
2023-03-28T07:21:29.051Z,102820.97
2023-03-28T07:23:55.562Z,102824.66
2023-03-28T07:26:24.131Z,102824.56
2023-03-28T07:28:50.696Z,102821.53
2023-03-28T07:31:18.336Z,102827.75
2023-03-28T07:33:44.939Z,102831.16
2023-03-28T07:36:14.480Z,102824.22
2023-03-28T07:38:43.412Z,102829.38
2023-03-28T07:41:12.903Z,102827.22
2023-03-28T07:43:44.036Z,102830.50
2023-03-28T07:46:14.449Z,102834.81
2023-03-28T07:48:45.565Z,102831.91
2023-03-28T07:51:12.359Z,102829.84
2023-03-28T07:53:39.466Z,102827.56
2023-03-28T07:56:11.692Z,102832.66
2023-03-28T07:58:41.803Z,102830.50
2023-03-28T08:01:12.933Z,102835.09
2023-03-28T08:03:40.752Z,102832.78
2023-03-28T08:06:24.329Z,102837.16
2023-03-28T08:08:57.504Z,102826.00
2023-03-28T08:11:24.069Z,102831.47
2023-03-28T08:13:50.618Z,102828.09
2023-03-28T08:16:17.261Z,102828.34
2023-03-28T08:18:43.919Z,102834.88
2023-03-28T08:21:10.436Z,102830.69
2023-03-28T08:23:39.526Z,102826.00
2023-03-28T08:26:07.543Z,102831.53
2023-03-28T08:28:35.922Z,102816.06
2023-03-28T08:31:09.246Z,102829.09
2023-03-28T08:33:35.945Z,102826.59
2023-03-28T08:36:07.101Z,102827.16
2023-03-28T08:38:33.624Z,102822.81
2023-03-28T08:41:21.201Z,102823.09
2023-03-28T08:44:25.833Z,102818.16
2023-03-28T08:47:02.229Z,102822.84
2023-03-28T08:49:34.955Z,102820.63
2023-03-28T08:52:05.420Z,102823.38
2023-03-28T08:54:44.399Z,102827.78
2023-03-28T08:57:21.052Z,102817.53
2023-03-28T09:00:03.670Z,102821.44
2023-03-28T09:02:34.126Z,102814.03
2023-03-28T09:05:17.763Z,102812.47
2023-03-28T09:08:18.507Z,102807.41
2023-03-28T09:10:56.274Z,102819.59
2023-03-28T09:13:37.612Z,102814.91
2023-03-28T09:16:20.125Z,102816.88
2023-03-28T09:19:17.781Z,102807.53
2023-03-28T09:21:57.550Z,102811.81
2023-03-28T09:24:39.398Z,102803.53
2023-03-28T09:27:09.335Z,102808.38
2023-03-28T09:29:38.605Z,102813.16
2023-03-28T09:32:24.068Z,102800.06
2023-03-28T09:34:51.677Z,102805.66
2023-03-28T09:37:45.994Z,102804.59
2023-03-28T09:40:32.095Z,102798.53
2023-03-28T09:43:16.937Z,102795.75
2023-03-28T09:45:49.491Z,102797.03
2023-03-28T09:48:25.231Z,102793.31
2023-03-28T09:50:52.899Z,102793.25
2023-03-28T09:53:32.880Z,102792.78
2023-03-28T09:56:09.992Z,102787.44
2023-03-28T09:58:56.544Z,102780.50
2023-03-28T10:01:31.045Z,102778.84
2023-03-28T10:04:02.684Z,102776.50
2023-03-28T10:06:31.831Z,102769.19
2023-03-28T10:09:20.730Z,102761.41
2023-03-28T10:11:57.475Z,102755.72
2023-03-28T10:14:36.399Z,102751.88
2023-03-28T10:17:12.095Z,102755.81
2023-03-28T10:19:42.983Z,102740.38
2023-03-28T10:22:21.926Z,102745.47
2023-03-28T10:24:51.411Z,102740.94
2023-03-28T10:27:24.270Z,102739.91
2023-03-28T10:29:56.429Z,102737.00
2023-03-28T10:32:30.228Z,102739.56
2023-03-28T10:35:09.914Z,102736.13
2023-03-28T10:37:38.720Z,102723.59
2023-03-28T10:40:22.469Z,102725.91
2023-03-28T10:42:52.320Z,102728.25
2023-03-28T10:45:30.405Z,102714.41
2023-03-28T10:48:02.468Z,102710.13
2023-03-28T10:50:42.602Z,102711.50
2023-03-28T10:53:52.320Z,102706.38
2023-03-28T10:56:26.780Z,102708.59
2023-03-28T10:59:06.420Z,102703.84
2023-03-28T11:01:47.240Z,102690.34
2023-03-28T11:04:43.020Z,102701.59
2023-03-28T11:07:32.059Z,102691.28
2023-03-28T11:10:02.607Z,102697.06
2023-03-28T11:12:55.625Z,102679.50
2023-03-28T11:15:50.267Z,102682.69
2023-03-28T11:18:35.207Z,102678.63
2023-03-28T11:21:23.193Z,102681.53
2023-03-28T11:24:12.664Z,102661.78
2023-03-28T11:27:15.958Z,102662.22
2023-03-28T11:29:49.449Z,102657.81
2023-03-28T11:32:25.192Z,102655.97
2023-03-28T11:35:15.979Z,102652.13
2023-03-28T11:37:59.439Z,102643.06
2023-03-28T11:40:35.096Z,102641.94
2023-03-28T11:43:04.757Z,102634.94
2023-03-28T11:45:53.176Z,102637.53
2023-03-28T11:48:31.167Z,102630.94
2023-03-28T11:51:12.719Z,102624.44
2023-03-28T11:53:48.076Z,102621.63
2023-03-28T11:56:33.333Z,102615.63
2023-03-28T11:59:15.372Z,102611.69
2023-03-28T12:01:51.392Z,102617.69
2023-03-28T12:04:27.449Z,102603.56
2023-03-28T12:07:18.187Z,102598.94
2023-03-28T12:10:11.192Z,102599.06
2023-03-28T12:12:57.233Z,102590.63
2023-03-28T12:15:42.886Z,102577.47
2023-03-28T12:18:43.532Z,102583.78
2023-03-28T12:21:33.420Z,102567.00
2023-03-28T12:24:24.927Z,102553.38
2023-03-28T12:27:15.944Z,102549.06
2023-03-28T12:29:59.187Z,102558.69
2023-03-28T12:32:32.880Z,102557.91
2023-03-28T12:35:13.608Z,102556.59
2023-03-28T12:37:45.371Z,102550.84
2023-03-28T12:40:25.120Z,102539.78
2023-03-28T12:42:57.607Z,102545.19
2023-03-28T12:45:42.773Z,102540.66
2023-03-28T12:48:17.721Z,102533.06
2023-03-28T12:50:55.786Z,102528.13
2023-03-28T12:53:25.103Z,102541.44
2023-03-28T12:55:53.890Z,102541.66
2023-03-28T12:58:34.841Z,102539.16
2023-03-28T13:01:27.455Z,102534.53
2023-03-28T13:04:16.058Z,102534.22
2023-03-28T13:07:03.953Z,102538.66
2023-03-28T13:09:51.823Z,102532.34
2023-03-28T13:12:30.173Z,102533.91
2023-03-28T13:14:57.877Z,102535.56
2023-03-28T13:17:31.313Z,102530.00
2023-03-28T13:20:27.626Z,102520.25
2023-03-28T13:22:54.629Z,102533.31
2023-03-28T13:25:32.184Z,102523.13
2023-03-28T13:28:18.570Z,102514.44
2023-03-28T13:30:46.705Z,102517.56
2023-03-28T13:33:29.778Z,102515.97
2023-03-28T13:36:01.503Z,102503.75
2023-03-28T13:38:28.441Z,102499.31
2023-03-28T13:41:07.085Z,102496.91
2023-03-28T13:43:33.679Z,102479.91
2023-03-28T13:46:12.438Z,102477.91
2023-03-28T13:48:58.067Z,102461.72
2023-03-28T13:51:31.503Z,102461.44
2023-03-28T13:54:02.764Z,102457.47
2023-03-28T13:56:46.730Z,102454.66
2023-03-28T13:59:17.391Z,102441.25
2023-03-28T14:01:48.723Z,102428.94
2023-03-28T14:04:54.199Z,102430.03
2023-03-28T14:07:26.283Z,102417.19
2023-03-28T14:09:58.793Z,102423.97
2023-03-28T14:12:28.861Z,102406.97
2023-03-28T14:14:58.667Z,102409.53
2023-03-28T14:17:32.727Z,102403.31
2023-03-28T14:20:08.405Z,102390.84
2023-03-28T14:22:56.943Z,102389.63
2023-03-28T14:25:30.274Z,102393.34
2023-03-28T14:27:59.523Z,102389.03
2023-03-28T14:30:32.131Z,102389.41
2023-03-28T14:33:01.470Z,102378.75
2023-03-28T14:35:30.729Z,102382.25
2023-03-28T14:38:13.947Z,102377.47
2023-03-28T14:40:45.238Z,102367.75
2023-03-28T14:43:14.509Z,102369.88
2023-03-28T14:45:47.825Z,102356.28
2023-03-28T14:48:19.717Z,102346.13
2023-03-28T14:50:52.173Z,102355.19
2023-03-28T14:53:28.824Z,102346.31
2023-03-28T14:56:02.224Z,102342.69
2023-03-28T14:58:30.735Z,102333.25
2023-03-28T15:01:01.535Z,102339.19
2023-03-28T15:03:45.833Z,102328.41
2023-03-28T15:06:17.634Z,102323.66
2023-03-28T15:08:47.912Z,102316.25
2023-03-28T15:11:23.593Z,102312.75
2023-03-28T15:14:05.131Z,102304.66
2023-03-28T15:16:36.433Z,102289.84
2023-03-28T15:19:09.503Z,102294.16
2023-03-28T15:21:41.226Z,102278.63
2023-03-28T15:24:15.901Z,102274.47
2023-03-28T15:26:50.519Z,102281.91
2023-03-28T15:29:25.168Z,102282.72
2023-03-28T15:32:02.862Z,102266.16
2023-03-28T15:34:41.436Z,102276.63
2023-03-28T15:37:14.841Z,102259.91
2023-03-28T15:39:44.340Z,102259.38
2023-03-28T15:42:20.126Z,102259.75
2023-03-28T15:45:00.941Z,102262.16
2023-03-28T15:47:35.576Z,102252.31
2023-03-28T15:50:09.520Z,102255.00
2023-03-28T15:52:46.320Z,102246.38
2023-03-28T15:55:20.696Z,102247.31
2023-03-28T15:57:47.996Z,102255.13
2023-03-28T16:00:53.180Z,102255.94
2023-03-28T16:03:30.357Z,102251.63
2023-03-28T16:06:10.272Z,102246.78
2023-03-28T16:08:44.936Z,102246.91
2023-03-28T16:11:26.736Z,102236.53
2023-03-28T16:13:53.811Z,102238.41
2023-03-28T16:16:23.938Z,102241.91
2023-03-28T16:18:53.348Z,102232.88
2023-03-28T16:21:19.805Z,102233.00
2023-03-28T16:23:46.805Z,102234.34
2023-03-28T16:26:16.149Z,102246.31
2023-03-28T16:28:42.709Z,102241.34
2023-03-28T16:31:13.973Z,102234.06
2023-03-28T16:33:40.454Z,102238.75
2023-03-28T16:36:09.364Z,102238.19
2023-03-28T16:38:35.967Z,102239.94
2023-03-28T16:41:02.616Z,102240.88
2023-03-28T16:43:29.077Z,102234.66
2023-03-28T16:45:56.023Z,102240.34
2023-03-28T16:48:25.001Z,102238.13
2023-03-28T16:50:56.470Z,102236.09
2023-03-28T16:53:23.049Z,102239.13
2023-03-28T16:55:52.086Z,102231.59
2023-03-28T16:58:18.626Z,102231.84
2023-03-28T17:00:45.246Z,102235.72
2023-03-28T17:03:14.176Z,102228.41
2023-03-28T17:05:41.404Z,102223.66
2023-03-28T17:08:08.098Z,102224.84
2023-03-28T17:10:41.299Z,102227.78
2023-03-28T17:13:10.168Z,102217.25
2023-03-28T17:15:39.767Z,102213.19
2023-03-28T17:18:06.343Z,102206.94
2023-03-28T17:20:36.002Z,102211.38
2023-03-28T17:23:03.895Z,102203.41
2023-03-28T17:25:41.722Z,102199.22
2023-03-28T17:28:11.431Z,102182.28
2023-03-28T17:30:38.251Z,102168.19
2023-03-28T17:33:09.783Z,102171.41
2023-03-28T17:35:38.892Z,102173.38
2023-03-28T17:38:05.418Z,102168.41
2023-03-28T17:40:32.130Z,102164.91
2023-03-28T17:43:01.016Z,102161.78
2023-03-28T17:45:27.646Z,102162.28
2023-03-28T17:47:58.711Z,102169.25
2023-03-28T17:50:25.347Z,102164.97
2023-03-28T17:52:51.885Z,102169.25
2023-03-28T17:55:18.366Z,102157.78
2023-03-28T17:57:47.215Z,102153.34
2023-03-28T18:00:16.538Z,102154.16
2023-03-28T18:02:46.604Z,102159.97
2023-03-28T18:05:13.313Z,102161.38
2023-03-28T18:07:40.352Z,102157.88
2023-03-28T18:10:11.325Z,102146.72
2023-03-28T18:12:38.078Z,102144.31
2023-03-28T18:15:05.374Z,102141.97
2023-03-28T18:17:31.957Z,102137.69
2023-03-28T18:20:02.994Z,102142.25
2023-03-28T18:22:30.298Z,102137.81
2023-03-28T18:24:56.870Z,102141.84
2023-03-28T18:27:23.587Z,102141.03
2023-03-28T18:29:50.072Z,102140.94
2023-03-28T18:32:16.630Z,102150.44
2023-03-28T18:34:43.650Z,102145.34
2023-03-28T18:37:13.971Z,102153.94
2023-03-28T18:39:45.515Z,102145.59
2023-03-28T18:42:12.060Z,102138.84
2023-03-28T18:44:41.061Z,102136.44
2023-03-28T18:47:10.301Z,102134.00
2023-03-28T18:49:41.043Z,102130.06
2023-03-28T18:52:10.607Z,102121.59
2023-03-28T18:54:37.920Z,102124.28
2023-03-28T18:57:04.720Z,102116.72
2023-03-28T18:59:31.376Z,102120.53
2023-03-28T19:01:59.442Z,102110.09
2023-03-28T19:04:28.503Z,102116.00
2023-03-28T19:06:57.519Z,102113.44
2023-03-28T19:09:24.214Z,102113.72
2023-03-28T19:11:54.633Z,102103.22
2023-03-28T19:14:21.155Z,102096.28
2023-03-28T19:16:47.741Z,102091.84
2023-03-28T19:19:18.846Z,102091.59
2023-03-28T19:21:45.420Z,102082.22
2023-03-28T19:24:14.194Z,102081.50
2023-03-28T19:26:42.936Z,102077.47
2023-03-28T19:29:09.400Z,102075.84
2023-03-28T19:31:35.988Z,102073.53
2023-03-28T19:34:04.745Z,102083.88
2023-03-28T19:36:33.508Z,102081.56
2023-03-28T19:39:02.157Z,102085.41
2023-03-28T19:41:31.715Z,102080.66
2023-03-28T19:43:58.216Z,102077.31
2023-03-28T19:46:35.519Z,102078.03
2023-03-28T19:49:08.079Z,102075.81
2023-03-28T19:51:37.136Z,102071.22
2023-03-28T19:54:05.904Z,102069.25
2023-03-28T19:56:32.634Z,102072.97
2023-03-28T19:58:59.188Z,102071.72
2023-03-28T20:01:25.767Z,102075.66
2023-03-28T20:03:53.334Z,102069.88
2023-03-28T20:06:25.267Z,102065.13
2023-03-28T20:08:51.830Z,102062.94
2023-03-28T20:11:18.955Z,102060.38
2023-03-28T20:13:45.531Z,102050.53
2023-03-28T20:16:15.926Z,102065.16
2023-03-28T20:18:42.643Z,102063.91
2023-03-28T20:21:13.220Z,102067.00
2023-03-28T20:23:40.065Z,102059.34
2023-03-28T20:26:21.981Z,102058.78
2023-03-28T20:28:51.378Z,102053.78
2023-03-28T20:31:20.329Z,102060.63
2023-03-28T20:33:46.899Z,102063.31
2023-03-28T20:36:13.527Z,102063.19
2023-03-28T20:38:40.524Z,102043.59
2023-03-28T20:41:14.503Z,102049.41
2023-03-28T20:43:47.002Z,102045.25
2023-03-28T20:46:19.125Z,102041.97
2023-03-28T20:48:52.898Z,102029.47
2023-03-28T20:51:23.601Z,102035.38
2023-03-28T20:53:58.620Z,102018.69
2023-03-28T20:56:27.587Z,102014.75
2023-03-28T20:58:55.086Z,102019.06
2023-03-28T21:01:30.384Z,102009.13
2023-03-28T21:03:58.962Z,102009.13
2023-03-28T21:06:33.535Z,102016.84
2023-03-28T21:09:02.047Z,102006.13
2023-03-28T21:11:34.889Z,102018.06
2023-03-28T21:14:02.380Z,102007.03
2023-03-28T21:16:32.809Z,102002.03
2023-03-28T21:19:01.695Z,102001.50
2023-03-28T21:21:33.107Z,102005.06
2023-03-28T21:24:00.243Z,101999.38
2023-03-28T21:26:26.822Z,101994.69
2023-03-28T21:28:55.883Z,101994.78
2023-03-28T21:31:28.072Z,101993.28
2023-03-28T21:33:58.720Z,101993.50
2023-03-28T21:36:28.413Z,101998.03
2023-03-28T21:38:57.224Z,101980.44
2023-03-28T21:41:24.348Z,101986.47
2023-03-28T21:43:54.789Z,101982.03
2023-03-28T21:46:22.267Z,101974.53
2023-03-28T21:48:50.020Z,101968.50
2023-03-28T21:51:17.898Z,101975.34
2023-03-28T21:53:46.990Z,101982.03
2023-03-28T21:56:14.822Z,101977.88
2023-03-28T21:58:41.681Z,101973.59
2023-03-28T22:01:09.240Z,101971.97
2023-03-28T22:03:38.793Z,101965.94
2023-03-28T22:06:07.904Z,101966.66
2023-03-28T22:08:36.975Z,101964.13
2023-03-28T22:11:14.408Z,101969.09
2023-03-28T22:13:50.345Z,101968.28
2023-03-28T22:16:16.840Z,101970.03
2023-03-28T22:18:50.431Z,101969.09
2023-03-28T22:21:17.330Z,101968.16
2023-03-28T22:23:47.805Z,101969.75
2023-03-28T22:26:18.058Z,101966.41
2023-03-28T22:28:44.718Z,101968.81
2023-03-28T22:31:11.631Z,101977.28
2023-03-28T22:33:39.211Z,101962.94
2023-03-28T22:36:06.316Z,101950.31
2023-03-28T22:38:35.149Z,101935.84
2023-03-28T22:41:04.292Z,101928.31
2023-03-28T22:43:33.113Z,101923.34
2023-03-28T22:46:05.593Z,101918.13
2023-03-28T22:48:32.302Z,101912.22
2023-03-28T22:51:02.235Z,101904.00
2023-03-28T22:53:29.012Z,101911.50
2023-03-28T22:55:57.999Z,101903.19
2023-03-28T22:58:27.259Z,101910.84
2023-03-28T23:00:55.110Z,101904.94
2023-03-28T23:03:22.081Z,101897.97
2023-03-28T23:05:51.617Z,101893.81
2023-03-28T23:08:20.560Z,101888.72
2023-03-28T23:10:49.876Z,101885.34
2023-03-28T23:13:19.075Z,101875.03
2023-03-28T23:15:48.124Z,101876.09
2023-03-28T23:18:16.925Z,101874.34
2023-03-28T23:20:51.018Z,101869.25
2023-03-28T23:23:20.031Z,101869.25
2023-03-28T23:25:48.857Z,101867.66
2023-03-28T23:28:16.851Z,101865.78
2023-03-28T23:30:45.128Z,101856.66
2023-03-28T23:33:11.746Z,101855.84
2023-03-28T23:35:42.289Z,101854.09
2023-03-28T23:38:09.155Z,101842.16
2023-03-28T23:40:36.059Z,101848.75
2023-03-28T23:43:02.564Z,101844.47
2023-03-28T23:45:29.824Z,101841.09
2023-03-28T23:47:58.530Z,101833.34
2023-03-28T23:50:25.013Z,101831.72
2023-03-28T23:52:51.590Z,101823.13
2023-03-28T23:55:21.165Z,101827.34
2023-03-28T23:57:50.301Z,101818.88
